createdAt,value
2023-01-06T00:01:13.868Z,11.13
2023-01-06T00:03:40.711Z,10.55
2023-01-06T00:06:10.063Z,10.40
2023-01-06T00:08:37.850Z,12.10
2023-01-06T00:11:06.595Z,11.57
2023-01-06T00:13:33.712Z,11.23
2023-01-06T00:16:06.730Z,10.25
2023-01-06T00:18:34.254Z,11.38
2023-01-06T00:21:01.996Z,9.77
2023-01-06T00:23:32.026Z,10.32
2023-01-06T00:25:58.939Z,10.07
2023-01-06T00:28:25.865Z,9.90
2023-01-06T00:30:53.062Z,11.13
2023-01-06T00:33:19.969Z,9.35
2023-01-06T00:35:46.788Z,11.25
2023-01-06T00:38:13.652Z,10.18
2023-01-06T00:40:44.321Z,9.32
2023-01-06T00:43:11.188Z,8.73
2023-01-06T00:45:37.981Z,9.30
2023-01-06T00:48:07.529Z,9.73
2023-01-06T00:50:34.415Z,9.20
2023-01-06T00:53:01.278Z,7.07
2023-01-06T00:55:29.861Z,7.22
2023-01-06T00:57:56.636Z,7.18
2023-01-06T01:00:23.668Z,7.45
2023-01-06T01:02:50.655Z,6.80
2023-01-06T01:05:17.551Z,7.38
2023-01-06T01:07:44.462Z,6.72
2023-01-06T01:10:11.429Z,6.70
2023-01-06T01:12:38.497Z,7.10
2023-01-06T01:15:05.716Z,5.50
2023-01-06T01:17:32.909Z,5.70
2023-01-06T01:20:00.983Z,6.25
2023-01-06T01:22:29.726Z,5.38
2023-01-06T01:24:56.878Z,5.75
2023-01-06T01:27:23.782Z,5.50
2023-01-06T01:29:50.600Z,4.25
2023-01-06T01:32:17.433Z,4.90
2023-01-06T01:34:44.461Z,4.47
2023-01-06T01:37:11.264Z,4.45
2023-01-06T01:39:38.151Z,3.05
2023-01-06T01:42:06.875Z,4.07
2023-01-06T01:44:58.090Z,5.00
2023-01-06T01:47:38.036Z,4.47
2023-01-06T01:50:12.076Z,4.47
2023-01-06T01:52:41.167Z,3.97
2023-01-06T01:55:09.301Z,3.88
2023-01-06T01:57:44.364Z,4.40
2023-01-06T02:00:11.563Z,3.97
2023-01-06T02:02:39.117Z,4.30
2023-01-06T02:05:07.116Z,3.42
2023-01-06T02:07:34.235Z,3.72
2023-01-06T02:10:17.273Z,4.45
2023-01-06T02:12:47.460Z,4.50
2023-01-06T02:15:23.916Z,4.18
2023-01-06T02:18:23.013Z,4.47
2023-01-06T02:21:15.825Z,3.50
2023-01-06T02:23:45.442Z,3.03
2023-01-06T02:26:43.173Z,3.35
2023-01-06T02:29:12.695Z,3.10
2023-01-06T02:31:53.176Z,3.85
2023-01-06T02:34:19.992Z,2.65
2023-01-06T02:37:14.915Z,3.28
2023-01-06T02:40:09.996Z,3.13
2023-01-06T02:42:42.728Z,2.63
2023-01-06T02:45:18.587Z,3.58
2023-01-06T02:47:54.583Z,2.55
2023-01-06T02:50:42.620Z,2.63
2023-01-06T02:53:24.621Z,2.72
2023-01-06T02:55:57.594Z,2.80
2023-01-06T02:58:42.522Z,2.70
2023-01-06T03:01:26.566Z,3.60
2023-01-06T03:03:56.688Z,2.90
2023-01-06T03:06:29.396Z,3.03
2023-01-06T03:08:57.494Z,2.80
2023-01-06T03:11:30.561Z,3.08
2023-01-06T03:14:05.044Z,3.40
2023-01-06T03:18:58.801Z,4.70
2023-01-06T03:21:30.088Z,4.28
2023-01-06T03:23:57.508Z,4.75
2023-01-06T03:26:25.747Z,5.13
2023-01-06T03:28:52.632Z,5.60
2023-01-06T03:31:47.242Z,5.95
2023-01-06T03:34:44.935Z,6.75
2023-01-06T03:37:53.238Z,6.82
2023-01-06T03:40:35.662Z,6.30
2023-01-06T03:43:12.332Z,6.40
2023-01-06T03:45:52.318Z,6.90
2023-01-06T03:48:51.037Z,5.93
2023-01-06T03:51:32.998Z,6.35
2023-01-06T03:54:05.966Z,5.78
2023-01-06T03:56:42.719Z,6.35
2023-01-06T03:59:21.227Z,7.07
2023-01-06T04:01:49.185Z,6.70
2023-01-06T04:04:18.032Z,5.97
2023-01-06T04:06:52.468Z,5.40
2023-01-06T04:12:04.581Z,5.13
2023-01-06T04:14:31.392Z,5.45
2023-01-06T04:16:58.254Z,4.18
2023-01-06T04:19:25.088Z,5.10
2023-01-06T04:21:51.877Z,4.22
2023-01-06T04:24:18.648Z,4.32
2023-01-06T04:26:45.433Z,4.18
2023-01-06T04:29:12.282Z,4.50
2023-01-06T04:31:39.144Z,4.38
2023-01-06T04:34:06.085Z,3.42
2023-01-06T04:36:32.932Z,3.70
2023-01-06T04:38:59.863Z,3.85
2023-01-06T04:41:26.704Z,3.75
2023-01-06T04:43:53.559Z,3.45
2023-01-06T04:46:20.341Z,3.63
2023-01-06T04:48:47.149Z,3.60
2023-01-06T04:51:13.970Z,3.40
2023-01-06T04:53:42.093Z,2.75
2023-01-06T04:56:11.583Z,3.00
2023-01-06T04:58:38.680Z,2.88
2023-01-06T05:01:08.716Z,2.63
2023-01-06T05:03:36.336Z,2.63
2023-01-06T05:06:11.713Z,2.30
2023-01-06T05:08:40.737Z,3.00
2023-01-06T05:11:16.893Z,1.85
2023-01-06T05:13:44.232Z,2.22
2023-01-06T05:16:16.662Z,1.80
2023-01-06T05:18:43.577Z,2.40
2023-01-06T05:21:10.404Z,2.22
2023-01-06T05:23:38.191Z,2.10
2023-01-06T05:26:05.951Z,2.45
2023-01-06T05:28:33.043Z,2.05
2023-01-06T05:31:04.154Z,2.45
2023-01-06T05:33:34.401Z,2.10
2023-01-06T05:36:03.528Z,1.95
2023-01-06T05:38:31.237Z,2.38
2023-01-06T05:40:59.342Z,2.15
2023-01-06T05:43:27.514Z,1.75
2023-01-06T05:45:55.114Z,1.35
2023-01-06T05:48:26.215Z,1.77
2023-01-06T05:50:53.458Z,1.88
2023-01-06T05:53:20.213Z,1.50
2023-01-06T05:55:47.072Z,1.90
2023-01-06T05:58:13.820Z,1.20
2023-01-06T06:00:40.573Z,2.25
2023-01-06T06:03:07.402Z,1.40
2023-01-06T06:05:34.248Z,1.60
2023-01-06T06:08:01.184Z,1.50
2023-01-06T06:10:27.960Z,1.15
2023-01-06T06:12:54.757Z,1.80
2023-01-06T06:15:21.638Z,1.27
2023-01-06T06:17:48.524Z,1.20
2023-01-06T06:20:15.329Z,1.20
2023-01-06T06:22:42.081Z,1.25
2023-01-06T06:25:09.268Z,0.98
2023-01-06T06:27:38.526Z,1.15
2023-01-06T06:30:08.887Z,1.27
2023-01-06T06:32:35.716Z,1.13
2023-01-06T06:35:02.540Z,1.05
2023-01-06T06:37:29.392Z,0.95
2023-01-06T06:39:56.241Z,0.90
2023-01-06T06:42:24.083Z,1.27
2023-01-06T06:44:52.240Z,1.27
2023-01-06T06:47:19.146Z,1.13
2023-01-06T06:49:45.966Z,0.88
2023-01-06T06:52:16.562Z,1.17
2023-01-06T06:54:43.400Z,1.20
2023-01-06T06:57:10.235Z,1.05
2023-01-06T06:59:37.099Z,1.50
2023-01-06T07:02:04.098Z,1.58
2023-01-06T07:04:30.931Z,1.08
2023-01-06T07:06:57.875Z,1.88
2023-01-06T07:09:24.702Z,1.83
2023-01-06T07:12:17.395Z,1.15
2023-01-06T07:14:44.486Z,1.42
2023-01-06T07:17:11.258Z,1.95
2023-01-06T07:19:38.115Z,1.52
2023-01-06T07:22:04.960Z,1.48
2023-01-06T07:24:31.809Z,2.05
2023-01-06T07:26:58.619Z,1.60
2023-01-06T07:29:25.476Z,1.42
2023-01-06T07:31:52.363Z,1.75
2023-01-06T07:34:19.140Z,2.13
2023-01-06T07:36:46.049Z,2.00
2023-01-06T07:39:12.869Z,2.72
2023-01-06T07:41:39.698Z,2.08
2023-01-06T07:44:06.473Z,2.03
2023-01-06T07:46:33.302Z,2.05
2023-01-06T07:49:00.154Z,1.77
2023-01-06T07:51:26.940Z,1.98
2023-01-06T07:53:53.887Z,2.00
2023-01-06T07:56:22.108Z,2.13
2023-01-06T07:58:48.977Z,2.22
2023-01-06T08:01:16.175Z,2.25
2023-01-06T08:03:43.316Z,2.38
2023-01-06T08:06:11.888Z,2.90
2023-01-06T08:08:40.419Z,2.00
2023-01-06T08:11:10.244Z,2.45
2023-01-06T08:13:37.616Z,1.88
2023-01-06T08:16:09.428Z,2.22
2023-01-06T08:18:36.589Z,2.30
2023-01-06T08:21:06.047Z,2.33
2023-01-06T08:23:33.651Z,2.78
2023-01-06T08:26:06.026Z,2.30
2023-01-06T08:28:33.823Z,2.58
2023-01-06T08:31:01.279Z,2.13
2023-01-06T08:33:29.035Z,2.83
2023-01-06T08:36:00.242Z,2.05
2023-01-06T08:38:27.735Z,1.70
2023-01-06T08:40:56.357Z,2.25
2023-01-06T08:43:24.060Z,1.75
2023-01-06T08:45:51.683Z,1.00
2023-01-06T08:48:18.590Z,1.00
2023-01-06T08:50:45.473Z,0.80
2023-01-06T08:53:13.157Z,0.80
2023-01-06T08:55:41.749Z,0.93
2023-01-06T08:58:09.799Z,0.55
2023-01-06T09:00:39.562Z,0.75
2023-01-06T09:03:06.730Z,0.93
2023-01-06T09:05:33.682Z,0.45
2023-01-06T09:08:00.501Z,0.57
2023-01-06T09:10:27.462Z,0.40
2023-01-06T09:12:54.589Z,0.63
2023-01-06T09:15:21.499Z,0.50
2023-01-06T09:17:48.264Z,0.43
2023-01-06T09:20:15.617Z,1.08
2023-01-06T09:22:55.987Z,0.22
2023-01-06T09:25:22.794Z,0.80
2023-01-06T09:27:49.683Z,0.88
2023-01-06T09:30:16.870Z,0.20
2023-01-06T09:32:43.801Z,0.73
2023-01-06T09:35:11.130Z,0.57
2023-01-06T09:37:37.994Z,0.20
2023-01-06T09:40:05.455Z,0.50
2023-01-06T09:43:15.662Z,1.23
2023-01-06T09:45:51.901Z,0.35
2023-01-06T09:48:25.549Z,0.35
2023-01-06T09:51:01.296Z,0.20
2023-01-06T09:53:43.751Z,0.45
2023-01-06T09:56:19.808Z,0.60
2023-01-06T09:59:08.564Z,0.70
2023-01-06T10:01:45.252Z,0.40
2023-01-06T10:04:35.537Z,0.63
2023-01-06T10:07:05.139Z,1.00
2023-01-06T10:09:50.243Z,0.35
2023-01-06T10:12:50.417Z,0.40
2023-01-06T10:15:35.863Z,0.68
2023-01-06T10:18:17.620Z,0.60
2023-01-06T10:21:19.758Z,0.55
2023-01-06T10:24:07.069Z,0.32
2023-01-06T10:26:45.259Z,0.52
2023-01-06T10:29:20.310Z,1.15
2023-01-06T10:31:48.998Z,1.30
2023-01-06T10:34:27.370Z,0.68
2023-01-06T10:37:20.425Z,0.47
2023-01-06T10:40:00.719Z,0.25
2023-01-06T10:42:57.388Z,0.22
2023-01-06T10:45:46.494Z,0.75
2023-01-06T10:48:15.292Z,0.43
2023-01-06T10:50:42.580Z,0.28
2023-01-06T10:53:13.736Z,0.20
2023-01-06T10:55:46.627Z,0.68
2023-01-06T10:58:42.705Z,0.50
2023-01-06T11:01:18.004Z,0.30
2023-01-06T11:03:45.786Z,0.60
2023-01-06T11:06:30.306Z,0.85
2023-01-06T11:08:58.279Z,0.52
2023-01-06T11:11:48.653Z,0.82
2023-01-06T11:14:20.985Z,0.30
2023-01-06T11:17:03.133Z,0.30
2023-01-06T11:19:40.558Z,0.57
2023-01-06T11:24:57.989Z,0.47
2023-01-06T11:27:24.948Z,0.63
2023-01-06T11:29:51.791Z,0.47
2023-01-06T11:32:30.597Z,0.85
2023-01-06T11:35:00.652Z,1.02
2023-01-06T11:37:40.315Z,0.68
2023-01-06T11:40:33.715Z,0.43
2023-01-06T11:43:13.875Z,0.77
2023-01-06T11:45:40.724Z,0.60
2023-01-06T11:48:25.697Z,0.85
2023-01-06T11:50:56.633Z,0.68
2023-01-06T11:53:26.813Z,0.75
2023-01-06T11:56:13.629Z,1.63
2023-01-06T11:59:04.574Z,0.57
2023-01-06T12:02:00.784Z,0.68
2023-01-06T12:04:43.068Z,0.60
2023-01-06T12:07:18.320Z,0.50
2023-01-06T12:09:47.038Z,0.40
2023-01-06T12:12:21.911Z,0.65
2023-01-06T12:14:49.156Z,0.40
2023-01-06T12:17:43.243Z,0.32
2023-01-06T12:20:13.585Z,0.57
2023-01-06T12:23:38.868Z,0.25
2023-01-06T12:26:15.586Z,0.50
2023-01-06T12:28:45.770Z,1.15
2023-01-06T12:31:28.350Z,0.52
2023-01-06T12:34:11.468Z,0.52
2023-01-06T12:36:58.567Z,0.85
2023-01-06T12:39:42.098Z,0.55
2023-01-06T12:42:41.175Z,0.43
2023-01-06T12:45:41.142Z,0.73
2023-01-06T12:48:36.486Z,0.20
2023-01-06T12:51:15.284Z,0.38
2023-01-06T12:53:45.773Z,0.68
2023-01-06T12:56:30.345Z,0.47
2023-01-06T12:58:57.219Z,0.77
2023-01-06T13:01:55.914Z,0.20
2023-01-06T13:04:48.104Z,0.52
2023-01-06T13:07:45.480Z,0.50
2023-01-06T13:10:48.635Z,0.50
2023-01-06T13:13:56.102Z,0.57
2023-01-06T13:16:47.331Z,0.50
2023-01-06T13:19:35.474Z,0.55
2023-01-06T13:22:06.850Z,0.52
2023-01-06T13:25:12.083Z,0.50
2023-01-06T13:27:48.985Z,0.73
2023-01-06T13:30:35.716Z,0.90
2023-01-06T13:33:17.068Z,0.70
2023-01-06T13:36:14.621Z,0.30
2023-01-06T13:39:12.011Z,0.43
2023-01-06T13:41:41.110Z,1.23
2023-01-06T13:44:18.056Z,0.60
2023-01-06T13:46:47.262Z,0.50
2023-01-06T13:49:15.150Z,0.93
2023-01-06T13:51:44.271Z,0.57
2023-01-06T13:54:39.251Z,0.98
2023-01-06T13:57:27.575Z,0.75
2023-01-06T14:00:05.813Z,0.98
2023-01-06T14:02:36.036Z,0.65
2023-01-06T14:05:19.875Z,0.43
2023-01-06T14:08:04.509Z,0.20
2023-01-06T14:10:41.485Z,0.50
2023-01-06T14:13:24.317Z,1.13
2023-01-06T14:16:10.986Z,0.50
2023-01-06T14:18:44.674Z,1.02
2023-01-06T14:21:14.480Z,0.93
2023-01-06T14:24:01.737Z,0.80
2023-01-06T14:27:04.957Z,0.50
2023-01-06T14:29:43.846Z,1.85
2023-01-06T14:32:19.489Z,1.05
2023-01-06T14:34:52.458Z,1.08
2023-01-06T14:37:23.654Z,0.50
2023-01-06T14:39:53.493Z,0.57
2023-01-06T14:42:34.856Z,0.30
2023-01-06T14:45:07.137Z,0.47
2023-01-06T14:47:45.985Z,1.25
2023-01-06T14:50:46.931Z,0.52
2023-01-06T14:53:14.064Z,0.77
2023-01-06T14:55:46.099Z,0.50
2023-01-06T14:58:36.892Z,0.47
2023-01-06T15:01:05.747Z,0.77
2023-01-06T15:03:34.654Z,1.23
2023-01-06T15:06:12.068Z,1.27
2023-01-06T15:08:39.044Z,0.85
2023-01-06T15:11:33.434Z,0.68
2023-01-06T15:14:00.312Z,0.40
2023-01-06T15:16:39.460Z,0.55
2023-01-06T15:19:08.328Z,0.45
2023-01-06T15:21:44.243Z,1.05
2023-01-06T15:24:31.749Z,0.57
2023-01-06T15:27:08.149Z,1.05
2023-01-06T15:29:35.593Z,0.63
2023-01-06T15:32:04.565Z,0.77
2023-01-06T15:34:39.497Z,0.80
2023-01-06T15:37:14.432Z,0.50
2023-01-06T15:39:42.680Z,0.43
2023-01-06T15:42:12.809Z,0.55
2023-01-06T15:44:53.303Z,1.20
2023-01-06T15:47:36.391Z,1.70
2023-01-06T15:50:07.741Z,0.70
2023-01-06T15:52:59.890Z,0.75
2023-01-06T15:55:49.462Z,0.73
2023-01-06T15:58:24.274Z,0.80
2023-01-06T16:01:06.744Z,0.43
2023-01-06T16:03:39.230Z,1.02
2023-01-06T16:06:14.360Z,1.48
2023-01-06T16:08:47.938Z,1.25
2023-01-06T16:12:04.522Z,0.30
2023-01-06T16:14:52.162Z,0.65
2023-01-06T16:17:31.654Z,1.13
2023-01-06T16:20:22.088Z,0.70
2023-01-06T16:22:53.859Z,0.75
2023-01-06T16:25:41.869Z,0.65
2023-01-06T16:28:20.727Z,0.90
2023-01-06T16:31:32.935Z,1.10
2023-01-06T16:34:19.086Z,1.00
2023-01-06T16:36:46.347Z,0.88
2023-01-06T16:39:13.294Z,0.85
2023-01-06T16:42:00.261Z,0.80
2023-01-06T16:45:17.185Z,1.20
2023-01-06T16:48:06.256Z,0.88
2023-01-06T16:50:41.471Z,1.08
2023-01-06T16:53:22.785Z,0.93
2023-01-06T16:55:55.188Z,1.20
2023-01-06T16:58:29.944Z,1.20
2023-01-06T17:04:18.360Z,1.55
2023-01-06T17:06:46.320Z,1.05
2023-01-06T17:09:22.715Z,1.63
2023-01-06T17:12:08.697Z,1.67
2023-01-06T17:14:38.442Z,1.55
2023-01-06T17:17:22.177Z,2.08
2023-01-06T17:19:49.211Z,1.73
2023-01-06T17:22:26.796Z,1.40
2023-01-06T17:25:06.232Z,1.17
2023-01-06T17:27:33.631Z,1.00
2023-01-06T17:30:01.667Z,0.95
2023-01-06T17:32:37.591Z,1.40
2023-01-06T17:35:28.149Z,1.80
2023-01-06T17:38:02.139Z,3.55
2023-01-06T17:40:43.550Z,2.90
2023-01-06T17:43:27.190Z,2.85
2023-01-06T17:46:11.729Z,3.15
2023-01-06T17:48:44.022Z,1.88
2023-01-06T17:51:19.011Z,1.88
2023-01-06T17:54:48.684Z,2.15
2023-01-06T17:57:18.954Z,2.35
2023-01-06T17:59:46.549Z,1.50
2023-01-06T18:02:54.246Z,1.15
2023-01-06T18:05:22.200Z,2.08
2023-01-06T18:07:50.181Z,1.17
2023-01-06T18:10:22.195Z,1.63
2023-01-06T18:12:48.988Z,2.47
2023-01-06T18:15:36.009Z,2.20
2023-01-06T18:18:35.879Z,2.15
2023-01-06T18:21:23.537Z,1.77
2023-01-06T18:23:54.000Z,2.13
2023-01-06T18:26:50.809Z,2.05
2023-01-06T18:29:25.877Z,1.67
2023-01-06T18:32:28.075Z,1.77
2023-01-06T18:35:00.789Z,3.75
2023-01-06T18:37:31.469Z,2.47
2023-01-06T18:40:02.479Z,2.80
2023-01-06T18:42:36.006Z,2.30
2023-01-06T18:45:27.655Z,1.77
2023-01-06T18:51:22.006Z,2.17
2023-01-06T18:53:51.421Z,1.50
2023-01-06T18:59:15.075Z,0.90
2023-01-06T19:02:23.114Z,1.30
2023-01-06T19:08:21.370Z,2.03
2023-01-06T19:10:58.011Z,1.63
2023-01-06T19:13:27.810Z,1.35
2023-01-06T19:16:05.776Z,1.27
2023-01-06T19:18:45.844Z,1.95
2023-01-06T19:23:54.804Z,1.58
2023-01-06T19:26:31.632Z,2.15
2023-01-06T19:29:02.001Z,1.30
2023-01-06T19:31:30.714Z,1.77
2023-01-06T19:37:10.181Z,2.40
2023-01-06T19:39:48.234Z,2.13
2023-01-06T19:42:24.519Z,1.70
2023-01-06T19:44:54.621Z,1.77
2023-01-06T19:47:26.483Z,2.20
2023-01-06T19:50:00.215Z,1.77
2023-01-06T19:52:35.596Z,1.95
2023-01-06T19:55:29.889Z,1.83
2023-01-06T19:58:18.212Z,1.55
2023-01-06T20:00:50.378Z,1.80
2023-01-06T20:06:29.993Z,1.75
2023-01-06T20:08:57.966Z,1.45
2023-01-06T20:14:11.993Z,1.58
2023-01-06T20:16:52.473Z,1.42
2023-01-06T20:19:21.559Z,2.25
2023-01-06T20:21:48.774Z,2.22
2023-01-06T20:24:22.376Z,1.83
2023-01-06T20:26:52.461Z,1.85
2023-01-06T20:29:27.927Z,2.28
2023-01-06T20:35:12.116Z,1.67
2023-01-06T20:37:40.096Z,3.03
2023-01-06T20:40:26.732Z,2.33
2023-01-06T20:43:31.884Z,2.67
2023-01-06T20:45:58.796Z,2.30
2023-01-06T20:48:25.931Z,3.47
2023-01-06T20:50:58.210Z,3.03
2023-01-06T20:53:25.876Z,3.03
2023-01-06T20:55:54.665Z,3.72
2023-01-06T20:58:27.757Z,3.75
2023-01-06T21:01:07.787Z,4.43
2023-01-06T21:03:34.822Z,3.83
2023-01-06T21:08:54.425Z,4.30
2023-01-06T21:11:21.498Z,4.93
2023-01-06T21:16:43.717Z,6.15
2023-01-06T21:19:10.682Z,5.55
2023-01-06T21:21:37.604Z,4.50
2023-01-06T21:24:05.219Z,5.25
2023-01-06T21:26:42.024Z,5.32
2023-01-06T21:29:10.103Z,4.25
2023-01-06T21:34:29.782Z,5.82
2023-01-06T21:37:05.752Z,5.85
2023-01-06T21:39:33.032Z,5.93
2023-01-06T21:42:23.641Z,5.63
2023-01-06T21:44:50.497Z,7.18
2023-01-06T21:47:17.911Z,6.22
2023-01-06T21:49:49.516Z,5.65
2023-01-06T21:52:17.093Z,7.05
2023-01-06T21:54:54.529Z,5.05
2023-01-06T21:57:25.922Z,6.50
2023-01-06T21:59:52.790Z,5.78
2023-01-06T22:02:19.791Z,6.32
2023-01-06T22:04:46.827Z,6.28
2023-01-06T22:07:14.446Z,5.95
2023-01-06T22:09:45.733Z,7.22
2023-01-06T22:12:14.643Z,6.85
2023-01-06T22:14:42.842Z,6.75
2023-01-06T22:17:12.948Z,6.78
2023-01-06T22:19:43.973Z,6.18
2023-01-06T22:22:10.857Z,7.07
2023-01-06T22:24:37.867Z,7.10
2023-01-06T22:27:04.700Z,7.60
2023-01-06T22:29:31.573Z,7.15
2023-01-06T22:32:05.703Z,6.63
2023-01-06T22:34:32.843Z,8.82
2023-01-06T22:36:59.952Z,7.95
2023-01-06T22:39:34.241Z,7.72
2023-01-06T22:42:06.882Z,6.97
2023-01-06T22:44:33.772Z,7.28
2023-01-06T22:47:00.824Z,8.50
2023-01-06T22:49:27.729Z,7.93
2023-01-06T22:51:54.570Z,8.35
2023-01-06T22:54:21.451Z,8.85
2023-01-06T22:56:48.279Z,7.78
2023-01-06T22:59:15.115Z,8.50
2023-01-06T23:01:42.169Z,7.38
2023-01-06T23:04:09.348Z,7.47
2023-01-06T23:06:36.231Z,7.05
2023-01-06T23:09:03.089Z,8.27
2023-01-06T23:11:31.383Z,6.85
2023-01-06T23:13:59.012Z,7.00
2023-01-06T23:16:27.093Z,6.65
2023-01-06T23:18:54.305Z,6.93
2023-01-06T23:21:26.639Z,7.28
2023-01-06T23:23:54.158Z,7.15
2023-01-06T23:26:27.403Z,8.45
2023-01-06T23:28:55.543Z,6.63
2023-01-06T23:31:25.430Z,7.22
2023-01-06T23:33:55.869Z,7.32
2023-01-06T23:36:24.306Z,7.13
2023-01-06T23:38:51.751Z,6.70
2023-01-06T23:41:21.865Z,6.47
2023-01-06T23:43:49.701Z,6.93
2023-01-06T23:46:19.791Z,6.82
2023-01-06T23:48:47.301Z,6.65
2023-01-06T23:51:15.607Z,7.55
2023-01-06T23:53:43.456Z,7.40
2023-01-06T23:56:13.313Z,6.53
2023-01-06T23:58:41.993Z,6.32
